Time,TemperatureF,DewpointF,PressureIn,WindDirection,WindDirectionDegrees,WindSpeedMPH,WindSpeedGustMPH,Humidity,HourlyPrecipIn,Conditions,Clouds,dailyrainin,SoftwareType,DateUTC
2013-02-02 00:01:00,60.2,56.0,30.23,SSE,149,2.0,4.0,86,0.00,,---,0.00,VWS V14.01,2013-02-02 06:01:00,
2013-02-02 00:06:00,60.3,55.8,30.23,SSE,162,1.0,3.0,85,0.00,,---,0.00,VWS V14.01,2013-02-02 06:06:00,
2013-02-02 00:11:00,60.3,55.8,30.23,SE,132,2.0,3.0,85,0.00,,---,0.00,VWS V14.01,2013-02-02 06:11:00,
2013-02-02 00:16:00,60.3,55.8,30.23,SE,131,1.0,3.0,85,0.00,,---,0.00,VWS V14.01,2013-02-02 06:16:00,
2013-02-02 00:21:00,60.4,55.9,30.23,SSE,151,2.0,3.0,85,0.00,,---,0.00,VWS V14.01,2013-02-02 06:21:00,
2013-02-02 00:26:00,60.5,56.0,30.23,SE,143,2.0,3.0,85,0.00,,---,0.00,VWS V14.01,2013-02-02 06:26:00,
2013-02-02 00:31:00,60.5,56.0,30.22,SE,132,3.0,3.0,85,0.00,,---,0.00,VWS V14.01,2013-02-02 06:31:00,
2013-02-02 00:36:00,60.5,56.0,30.22,SSE,150,2.0,3.0,85,0.00,,---,0.00,VWS V14.01,2013-02-02 06:36:00,
2013-02-02 00:41:00,60.5,56.3,30.22,SE,128,2.0,3.0,86,0.00,,---,0.00,VWS V14.01,2013-02-02 06:41:00,
2013-02-02 00:46:00,60.5,56.3,30.22,SSE,152,0.0,4.0,86,0.00,,---,0.00,VWS V14.01,2013-02-02 06:46:00,
2013-02-02 00:51:00,60.5,56.3,30.22,SE,132,2.0,4.0,86,0.00,,---,0.00,VWS V14.01,2013-02-02 06:51:00,
2013-02-02 00:56:00,60.5,56.3,30.22,SSE,154,2.0,4.0,86,0.00,,---,0.00,VWS V14.01,2013-02-02 06:56:00,
2013-02-02 01:01:00,60.5,56.3,30.22,SSE,151,4.0,4.0,86,0.00,,---,0.00,VWS V14.01,2013-02-02 07:01:00,
2013-02-02 01:06:00,60.5,56.3,30.22,SSE,167,4.0,5.0,86,0.00,,---,0.00,VWS V14.01,2013-02-02 07:06:00,
2013-02-02 01:11:00,60.5,56.3,30.21,SE,141,4.0,5.0,86,0.00,,---,0.00,VWS V14.01,2013-02-02 07:11:00,
2013-02-02 01:16:00,60.6,56.4,30.21,ESE,108,2.0,5.0,86,0.00,,---,0.00,VWS V14.01,2013-02-02 07:16:00,
2013-02-02 01:21:00,60.6,56.4,30.22,SE,139,3.0,5.0,86,0.00,,---,0.00,VWS V14.01,2013-02-02 07:21:00,
2013-02-02 01:26:00,60.7,56.5,30.22,SSE,155,2.0,5.0,86,0.00,,---,0.00,VWS V14.01,2013-02-02 07:26:00,
2013-02-02 01:31:00,60.7,56.5,30.22,SSE,158,3.0,5.0,86,0.00,,---,0.00,VWS V14.01,2013-02-02 07:31:00,
2013-02-02 01:36:00,60.6,56.4,30.22,SSE,148,1.0,5.0,86,0.00,,---,0.00,VWS V14.01,2013-02-02 07:36:00,
2013-02-02 01:41:00,60.6,56.7,30.22,SE,139,1.0,5.0,87,0.00,,---,0.00,VWS V14.01,2013-02-02 07:41:00,
2013-02-02 01:46:00,60.5,56.6,30.21,SSE,163,1.0,5.0,87,0.00,,---,0.00,VWS V14.01,2013-02-02 07:46:00,
2013-02-02 01:51:00,60.4,56.5,30.21,SSE,160,3.0,5.0,87,0.00,,---,0.00,VWS V14.01,2013-02-02 07:51:00,
2013-02-02 01:56:00,60.4,56.5,30.21,SSE,157,1.0,5.0,87,0.00,,---,0.00,VWS V14.01,2013-02-02 07:56:00,
2013-02-02 02:01:00,60.4,56.5,30.21,SSE,158,0.0,5.0,87,0.00,,---,0.00,VWS V14.01,2013-02-02 08:01:00,
2013-02-02 02:06:00,60.2,56.6,30.21,SSE,153,0.0,2.0,88,0.00,,---,0.00,VWS V14.01,2013-02-02 08:06:00,
2013-02-02 02:11:00,60.1,56.5,30.21,SSW,196,1.0,2.0,88,0.00,,---,0.00,VWS V14.01,2013-02-02 08:11:00,
2013-02-02 02:16:00,60.0,56.4,30.21,SE,143,1.0,2.0,88,0.00,,---,0.00,VWS V14.01,2013-02-02 08:16:00,
2013-02-02 02:21:00,59.9,56.3,30.21,SSE,160,1.0,2.0,88,0.00,,---,0.00,VWS V14.01,2013-02-02 08:21:00,
2013-02-02 02:26:00,59.8,56.6,30.20,SSE,151,1.0,2.0,89,0.00,,---,0.00,VWS V14.01,2013-02-02 08:26:00,
2013-02-02 02:31:00,59.8,56.6,30.20,SSE,160,1.0,2.0,89,0.00,,---,0.00,VWS V14.01,2013-02-02 08:31:00,
2013-02-02 02:36:00,59.8,56.9,30.20,SSE,160,2.0,2.0,90,0.00,,---,0.00,VWS V14.01,2013-02-02 08:36:00,
2013-02-02 02:41:00,59.9,57.0,30.20,SSE,153,3.0,4.0,90,0.00,,---,0.00,VWS V14.01,2013-02-02 08:41:00,
2013-02-02 02:46:00,59.9,57.0,30.20,SSE,165,2.0,4.0,90,0.00,,---,0.00,VWS V14.01,2013-02-02 08:46:00,
2013-02-02 02:51:00,59.9,57.0,30.20,South,177,3.0,4.0,90,0.00,,---,0.00,VWS V14.01,2013-02-02 08:51:00,
2013-02-02 02:56:00,59.9,57.0,30.20,SSE,147,1.0,4.0,90,0.00,,---,0.00,VWS V14.01,2013-02-02 08:56:00,
2013-02-02 03:01:00,59.9,57.0,30.20,SSE,160,1.0,4.0,90,0.00,,---,0.00,VWS V14.01,2013-02-02 09:01:00,
2013-02-02 03:06:00,60.0,57.4,30.20,SSE,159,1.0,3.0,91,0.00,,---,0.00,VWS V14.01,2013-02-02 09:06:00,
2013-02-02 03:11:00,60.0,57.4,30.20,South,184,1.0,3.0,91,0.00,,---,0.00,VWS V14.01,2013-02-02 09:11:00,
2013-02-02 03:16:00,60.0,57.4,30.20,SE,136,1.0,3.0,91,0.00,,---,0.00,VWS V14.01,2013-02-02 09:16:00,
2013-02-02 03:21:00,60.0,57.4,30.20,SSE,147,1.0,3.0,91,0.00,,---,0.00,VWS V14.01,2013-02-02 09:21:00,
2013-02-02 03:26:00,60.0,57.4,30.20,SE,139,0.0,3.0,91,0.00,,---,0.00,VWS V14.01,2013-02-02 09:26:00,
2013-02-02 03:31:00,60.0,57.4,30.20,SSE,153,1.0,3.0,91,0.00,,---,0.00,VWS V14.01,2013-02-02 09:31:00,
2013-02-02 03:36:00,59.9,57.3,30.20,SE,136,0.0,3.0,91,0.00,,---,0.00,VWS V14.01,2013-02-02 09:36:00,
2013-02-02 03:41:00,59.7,57.1,30.20,SE,131,1.0,3.0,91,0.00,,---,0.00,VWS V14.01,2013-02-02 09:41:00,
2013-02-02 03:46:00,59.6,57.0,30.20,SE,146,0.0,3.0,91,0.00,,---,0.00,VWS V14.01,2013-02-02 09:46:00,
2013-02-02 03:51:00,59.6,57.0,30.20,SE,143,0.0,3.0,91,0.00,,---,0.00,VWS V14.01,2013-02-02 09:51:00,
2013-02-02 03:56:00,59.6,57.3,30.20,SE,141,0.0,3.0,92,0.00,,---,0.00,VWS V14.01,2013-02-02 09:56:00,
2013-02-02 04:01:00,59.7,57.4,30.20,SE,141,0.0,3.0,92,0.00,,---,0.00,VWS V14.01,2013-02-02 10:01:00,
2013-02-02 04:06:00,59.7,57.4,30.20,SE,141,0.0,1.0,92,0.00,,---,0.00,VWS V14.01,2013-02-02 10:06:00,
2013-02-02 04:11:00,59.6,57.3,30.20,SE,141,0.0,1.0,92,0.00,,---,0.00,VWS V14.01,2013-02-02 10:11:00,
2013-02-02 04:16:00,59.5,57.2,30.20,SE,139,0.0,1.0,92,0.00,,---,0.00,VWS V14.01,2013-02-02 10:16:00,
2013-02-02 04:21:00,59.4,57.1,30.20,SE,141,0.0,1.0,92,0.00,,---,0.00,VWS V14.01,2013-02-02 10:21:00,
2013-02-02 04:26:00,59.3,57.0,30.20,SE,139,0.0,1.0,92,0.00,,---,0.00,VWS V14.01,2013-02-02 10:26:00,
2013-02-02 04:31:00,59.2,56.9,30.20,SE,139,0.0,1.0,92,0.00,,---,0.00,VWS V14.01,2013-02-02 10:31:00,
2013-02-02 04:36:00,59.1,56.8,30.19,SE,139,0.0,1.0,92,0.00,,---,0.00,VWS V14.01,2013-02-02 10:36:00,
2013-02-02 04:41:00,59.2,57.2,30.20,ESE,123,0.0,1.0,93,0.00,,---,0.00,VWS V14.01,2013-02-02 10:41:00,
2013-02-02 04:46:00,59.3,57.3,30.20,SE,132,0.0,1.0,93,0.00,,---,0.00,VWS V14.01,2013-02-02 10:46:00,
2013-02-02 04:51:00,59.4,57.4,30.19,SE,132,0.0,1.0,93,0.00,,---,0.00,VWS V14.01,2013-02-02 10:51:00,
2013-02-02 04:56:00,59.4,57.4,30.19,SE,139,0.0,1.0,93,0.00,,---,0.00,VWS V14.01,2013-02-02 10:56:00,
2013-02-02 05:01:00,59.4,57.4,30.19,SE,135,0.0,1.0,93,0.00,,---,0.00,VWS V14.01,2013-02-02 11:01:00,
2013-02-02 05:06:00,59.4,57.4,30.19,SE,134,0.0,1.0,93,0.00,,---,0.00,VWS V14.01,2013-02-02 11:06:00,
2013-02-02 05:11:00,59.4,57.4,30.19,SE,135,0.0,1.0,93,0.00,,---,0.00,VWS V14.01,2013-02-02 11:11:00,
2013-02-02 05:16:00,59.5,57.5,30.19,SE,136,0.0,1.0,93,0.00,,---,0.00,VWS V14.01,2013-02-02 11:16:00,
2013-02-02 05:21:00,59.5,57.5,30.20,SE,131,0.0,1.0,93,0.00,,---,0.00,VWS V14.01,2013-02-02 11:21:00,
2013-02-02 05:26:00,59.3,57.3,30.20,SE,131,0.0,1.0,93,0.00,,---,0.00,VWS V14.01,2013-02-02 11:26:00,
2013-02-02 05:31:00,59.3,57.3,30.20,SE,131,0.0,1.0,93,0.00,,---,0.00,VWS V14.01,2013-02-02 11:31:00,
2013-02-02 05:36:00,59.3,57.3,30.20,SE,131,0.0,1.0,93,0.00,,---,0.00,VWS V14.01,2013-02-02 11:36:00,
2013-02-02 05:41:00,59.1,57.1,30.20,SE,125,0.0,1.0,93,0.00,,---,0.00,VWS V14.01,2013-02-02 11:41:00,
2013-02-02 05:46:00,59.0,57.3,30.20,SE,126,1.0,1.0,94,0.00,,---,0.00,VWS V14.01,2013-02-02 11:46:00,
2013-02-02 05:51:00,59.2,57.5,30.20,ESE,122,0.0,1.0,94,0.00,,---,0.00,VWS V14.01,2013-02-02 11:51:00,
2013-02-02 05:56:00,59.2,57.5,30.20,East,89,1.0,1.0,94,0.00,,---,0.00,VWS V14.01,2013-02-02 11:56:00,
2013-02-02 06:01:00,59.2,57.5,30.21,East,89,1.0,1.0,94,0.00,,---,0.00,VWS V14.01,2013-02-02 12:01:00,
2013-02-02 06:06:00,59.2,57.5,30.21,East,101,1.0,1.0,94,0.00,,---,0.00,VWS V14.01,2013-02-02 12:06:00,
2013-02-02 06:11:00,59.3,57.6,30.21,ESE,110,1.0,2.0,94,0.00,,---,0.00,VWS V14.01,2013-02-02 12:11:00,
2013-02-02 06:16:00,59.3,57.6,30.21,ESE,115,0.0,2.0,94,0.00,,---,0.00,VWS V14.01,2013-02-02 12:16:00,
2013-02-02 06:21:00,59.3,57.6,30.21,ESE,105,1.0,2.0,94,0.00,,---,0.00,VWS V14.01,2013-02-02 12:21:00,
2013-02-02 06:26:00,59.2,57.5,30.21,East,84,0.0,2.0,94,0.00,,---,0.00,VWS V14.01,2013-02-02 12:26:00,
2013-02-02 06:31:00,59.1,57.4,30.22,East,84,0.0,2.0,94,0.00,,---,0.00,VWS V14.01,2013-02-02 12:31:00,
2013-02-02 06:36:00,59.1,57.4,30.22,East,85,0.0,2.0,94,0.00,,---,0.00,VWS V14.01,2013-02-02 12:36:00,
2013-02-02 06:41:00,59.0,57.3,30.22,East,88,0.0,2.0,94,0.00,,---,0.00,VWS V14.01,2013-02-02 12:41:00,
2013-02-02 06:46:00,59.0,57.6,30.22,East,88,0.0,2.0,95,0.00,,---,0.00,VWS V14.01,2013-02-02 12:46:00,
2013-02-02 06:51:00,58.9,57.2,30.22,East,88,1.0,2.0,94,0.00,,---,0.00,VWS V14.01,2013-02-02 12:51:00,
2013-02-02 06:56:00,58.8,57.4,30.22,East,96,1.0,2.0,95,0.00,,---,0.00,VWS V14.01,2013-02-02 12:56:00,
2013-02-02 07:01:00,59.0,57.6,30.22,East,101,0.0,2.0,95,0.00,,---,0.00,VWS V14.01,2013-02-02 13:01:00,
2013-02-02 07:06:00,59.1,57.7,30.23,East,101,0.0,1.0,95,0.00,,---,0.00,VWS V14.01,2013-02-02 13:06:00,
2013-02-02 07:11:00,59.1,57.7,30.23,East,101,0.0,1.0,95,0.00,,---,0.00,VWS V14.01,2013-02-02 13:11:00,
2013-02-02 07:16:00,59.0,57.3,30.23,East,84,0.0,1.0,94,0.00,,---,0.00,VWS V14.01,2013-02-02 13:16:00,
2013-02-02 07:21:00,59.0,57.3,30.23,East,81,1.0,2.0,94,0.00,,---,0.00,VWS V14.01,2013-02-02 13:21:00,
2013-02-02 07:26:00,59.0,57.6,30.24,East,80,0.0,2.0,95,0.00,,---,0.00,VWS V14.01,2013-02-02 13:26:00,
2013-02-02 07:31:00,59.0,57.6,30.24,East,81,0.0,2.0,95,0.00,,---,0.00,VWS V14.01,2013-02-02 13:31:00,
2013-02-02 07:36:00,59.1,57.7,30.23,East,82,0.0,2.0,95,0.00,,---,0.00,VWS V14.01,2013-02-02 13:36:00,
2013-02-02 07:41:00,59.2,57.8,30.24,East,82,0.0,2.0,95,0.00,,---,0.00,VWS V14.01,2013-02-02 13:41:00,
2013-02-02 07:46:00,59.3,57.9,30.23,East,82,0.0,2.0,95,0.00,,---,0.00,VWS V14.01,2013-02-02 13:46:00,
2013-02-02 07:51:00,59.3,57.6,30.23,East,83,0.0,2.0,94,0.00,,---,0.00,VWS V14.01,2013-02-02 13:51:00,
2013-02-02 07:56:00,59.6,57.9,30.24,East,85,0.0,2.0,94,0.00,,---,0.00,VWS V14.01,2013-02-02 13:56:00,
2013-02-02 08:01:00,59.9,58.2,30.24,East,91,0.0,2.0,94,0.00,,---,0.00,VWS V14.01,2013-02-02 14:01:00,
2013-02-02 08:06:00,60.3,58.6,30.24,East,88,0.0,2.0,94,0.00,,---,0.00,VWS V14.01,2013-02-02 14:06:00,
2013-02-02 08:11:00,60.8,58.8,30.24,East,97,0.0,2.0,93,0.00,,---,0.00,VWS V14.01,2013-02-02 14:11:00,
2013-02-02 08:16:00,61.4,59.4,30.24,East,84,0.0,2.0,93,0.00,,---,0.00,VWS V14.01,2013-02-02 14:16:00,
2013-02-02 08:21:00,62.2,60.2,30.24,SE,127,0.0,2.0,93,0.00,,---,0.00,VWS V14.01,2013-02-02 14:21:00,
2013-02-02 08:26:00,63.0,60.3,30.24,ESE,113,0.0,2.0,91,0.00,,---,0.00,VWS V14.01,2013-02-02 14:26:00,
2013-02-02 08:31:00,63.8,60.8,30.24,ESE,116,0.0,2.0,90,0.00,,---,0.00,VWS V14.01,2013-02-02 14:31:00,
2013-02-02 08:36:00,64.5,60.9,30.25,East,90,2.0,2.0,88,0.00,,---,0.00,VWS V14.01,2013-02-02 14:36:00,
2013-02-02 08:41:00,64.8,60.8,30.25,East,94,0.0,2.0,87,0.00,,---,0.00,VWS V14.01,2013-02-02 14:41:00,
2013-02-02 08:46:00,65.5,61.2,30.25,ESE,108,0.0,2.0,86,0.00,,---,0.00,VWS V14.01,2013-02-02 14:46:00,
2013-02-02 08:51:00,65.9,60.6,30.25,SE,125,1.0,3.0,83,0.00,,---,0.00,VWS V14.01,2013-02-02 14:51:00,
2013-02-02 08:56:00,66.0,60.7,30.25,ESE,105,2.0,3.0,83,0.00,,---,0.00,VWS V14.01,2013-02-02 14:56:00,
2013-02-02 09:01:00,66.2,60.5,30.25,ESE,112,2.0,3.0,82,0.00,,---,0.00,VWS V14.01,2013-02-02 15:01:00,
2013-02-02 09:06:00,66.4,60.7,30.25,SE,125,1.0,2.0,82,0.00,,---,0.00,VWS V14.01,2013-02-02 15:06:00,
2013-02-02 09:11:00,66.8,60.8,30.25,East,101,2.0,2.0,81,0.00,,---,0.00,VWS V14.01,2013-02-02 15:11:00,
2013-02-02 09:16:00,66.8,60.8,30.25,ESE,105,3.0,3.0,81,0.00,,---,0.00,VWS V14.01,2013-02-02 15:16:00,
2013-02-02 09:21:00,66.9,61.2,30.25,SE,136,2.0,3.0,82,0.00,,---,0.00,VWS V14.01,2013-02-02 15:21:00,
2013-02-02 09:26:00,67.3,61.3,30.25,SE,124,3.0,3.0,81,0.00,,---,0.00,VWS V14.01,2013-02-02 15:26:00,
2013-02-02 09:31:00,67.6,60.9,30.25,ESE,122,4.0,4.0,79,0.00,,---,0.00,VWS V14.01,2013-02-02 15:31:00,
2013-02-02 09:36:00,67.9,61.2,30.25,ESE,105,3.0,4.0,79,0.00,,---,0.00,VWS V14.01,2013-02-02 15:36:00,
2013-02-02 09:41:00,67.9,60.8,30.25,ESE,115,3.0,4.0,78,0.00,,---,0.00,VWS V14.01,2013-02-02 15:41:00,
2013-02-02 09:46:00,68.0,60.5,30.26,ESE,122,3.0,4.0,77,0.00,,---,0.00,VWS V14.01,2013-02-02 15:46:00,
2013-02-02 09:51:00,67.8,60.0,30.26,ESE,113,2.0,4.0,76,0.00,,---,0.00,VWS V14.01,2013-02-02 15:51:00,
2013-02-02 09:56:00,68.0,60.2,30.26,ESE,115,2.0,4.0,76,0.00,,---,0.00,VWS V14.01,2013-02-02 15:56:00,
2013-02-02 10:01:00,68.1,60.3,30.26,East,84,2.0,4.0,76,0.00,,---,0.00,VWS V14.01,2013-02-02 16:01:00,
2013-02-02 10:06:00,68.4,60.2,30.26,ESE,112,2.0,2.0,75,0.00,,---,0.00,VWS V14.01,2013-02-02 16:06:00,
2013-02-02 10:11:00,68.5,59.5,30.26,East,82,2.0,3.0,73,0.00,,---,0.00,VWS V14.01,2013-02-02 16:11:00,
2013-02-02 10:16:00,68.8,60.2,30.26,East,82,1.0,4.0,74,0.00,,---,0.00,VWS V14.01,2013-02-02 16:16:00,
2013-02-02 10:21:00,69.1,59.3,30.26,SE,127,4.0,4.0,71,0.00,,---,0.00,VWS V14.01,2013-02-02 16:21:00,
2013-02-02 10:26:00,69.4,59.6,30.26,SE,135,3.0,5.0,71,0.00,,---,0.00,VWS V14.01,2013-02-02 16:26:00,
2013-02-02 10:31:00,69.6,59.8,30.26,ESE,109,2.0,5.0,71,0.00,,---,0.00,VWS V14.01,2013-02-02 16:31:00,
2013-02-02 10:36:00,69.9,58.9,30.26,ESE,105,2.0,5.0,68,0.00,,---,0.00,VWS V14.01,2013-02-02 16:36:00,
2013-02-02 10:41:00,69.6,59.0,30.26,East,101,0.0,5.0,69,0.00,,---,0.00,VWS V14.01,2013-02-02 16:41:00,
2013-02-02 10:46:00,69.4,58.8,30.26,SE,141,4.0,6.0,69,0.00,,---,0.00,VWS V14.01,2013-02-02 16:46:00,
2013-02-02 10:51:00,69.7,59.5,30.26,SSE,154,2.0,6.0,70,0.00,,---,0.00,VWS V14.01,2013-02-02 16:51:00,
2013-02-02 10:56:00,70.0,59.0,30.26,SE,127,4.0,6.0,68,0.00,,---,0.00,VWS V14.01,2013-02-02 16:56:00,
2013-02-02 11:01:00,70.2,58.7,30.26,East,82,3.0,6.0,67,0.00,,---,0.00,VWS V14.01,2013-02-02 17:01:00,
2013-02-02 11:06:00,70.6,59.5,30.26,ESE,105,3.0,5.0,68,0.00,,---,0.00,VWS V14.01,2013-02-02 17:06:00,
2013-02-02 11:11:00,70.6,59.1,30.26,SE,125,5.0,7.0,67,0.00,,---,0.00,VWS V14.01,2013-02-02 17:11:00,
2013-02-02 11:16:00,70.5,59.4,30.26,ESE,122,4.0,7.0,68,0.00,,---,0.00,VWS V14.01,2013-02-02 17:16:00,
2013-02-02 11:21:00,70.4,58.9,30.26,East,101,4.0,8.0,67,0.00,,---,0.00,VWS V14.01,2013-02-02 17:21:00,
2013-02-02 11:26:00,70.5,59.0,30.25,SE,126,4.0,8.0,67,0.00,,---,0.00,VWS V14.01,2013-02-02 17:26:00,
2013-02-02 11:31:00,70.9,58.6,30.25,East,98,6.0,9.0,65,0.00,,---,0.00,VWS V14.01,2013-02-02 17:31:00,
2013-02-02 11:36:00,70.7,58.8,30.25,ESE,118,6.0,9.0,66,0.00,,---,0.00,VWS V14.01,2013-02-02 17:36:00,
2013-02-02 11:41:00,70.7,58.8,30.25,SSE,152,5.0,9.0,66,0.00,,---,0.00,VWS V14.01,2013-02-02 17:41:00,
2013-02-02 11:46:00,70.8,59.7,30.25,SE,141,5.0,9.0,68,0.00,,---,0.00,VWS V14.01,2013-02-02 17:46:00,
2013-02-02 11:51:00,70.7,58.4,30.25,ESE,123,7.0,9.0,65,0.00,,---,0.00,VWS V14.01,2013-02-02 17:51:00,
2013-02-02 11:56:00,71.0,59.1,30.24,SSW,208,4.0,9.0,66,0.00,,---,0.00,VWS V14.01,2013-02-02 17:56:00,
2013-02-02 12:01:00,71.2,59.3,30.24,South,172,5.0,9.0,66,0.00,,---,0.00,VWS V14.01,2013-02-02 18:01:00,
2013-02-02 12:06:00,71.0,58.7,30.24,SE,130,5.0,8.0,65,0.00,,---,0.00,VWS V14.01,2013-02-02 18:06:00,
2013-02-02 12:11:00,71.0,58.2,30.24,ENE,78,5.0,8.0,64,0.00,,---,0.00,VWS V14.01,2013-02-02 18:11:00,
2013-02-02 12:16:00,71.3,58.5,30.24,SE,129,6.0,9.0,64,0.00,,---,0.00,VWS V14.01,2013-02-02 18:16:00,
2013-02-02 12:21:00,71.2,58.8,30.24,ESE,112,7.0,9.0,65,0.00,,---,0.00,VWS V14.01,2013-02-02 18:21:00,
2013-02-02 12:26:00,71.2,59.3,30.23,East,82,5.0,9.0,66,0.00,,---,0.00,VWS V14.01,2013-02-02 18:26:00,
2013-02-02 12:31:00,71.1,58.3,30.23,East,94,4.0,9.0,64,0.00,,---,0.00,VWS V14.01,2013-02-02 18:31:00,
2013-02-02 12:36:00,71.0,58.2,30.23,SE,145,4.0,9.0,64,0.00,,---,0.00,VWS V14.01,2013-02-02 18:36:00,
2013-02-02 12:41:00,71.5,59.1,30.23,SSE,163,5.0,9.0,65,0.00,,---,0.00,VWS V14.01,2013-02-02 18:41:00,
2013-02-02 12:46:00,71.7,59.3,30.23,ESE,110,7.0,9.0,65,0.00,,---,0.00,VWS V14.01,2013-02-02 18:46:00,
2013-02-02 12:51:00,71.5,58.7,30.23,SE,139,7.0,10.0,64,0.00,,---,0.00,VWS V14.01,2013-02-02 18:51:00,
2013-02-02 12:56:00,71.3,58.9,30.22,ESE,115,7.0,10.0,65,0.00,,---,0.00,VWS V14.01,2013-02-02 18:56:00,
2013-02-02 13:01:00,71.6,59.2,30.22,SE,135,6.0,10.0,65,0.00,,---,0.00,VWS V14.01,2013-02-02 19:01:00,
2013-02-02 13:06:00,71.5,59.1,30.22,ESE,122,9.0,9.0,65,0.00,,---,0.00,VWS V14.01,2013-02-02 19:06:00,
2013-02-02 13:10:00,71.7,59.8,30.22,ESE,117,3.0,9.0,66,0.00,,---,0.00,VWS V14.01,2013-02-02 19:10:00,
2013-02-02 13:15:00,71.4,58.6,30.22,SE,128,5.0,11.0,64,0.00,,---,0.00,VWS V14.01,2013-02-02 19:15:00,
2013-02-02 13:21:00,71.3,59.4,30.21,East,85,6.0,11.0,66,0.00,,---,0.00,VWS V14.01,2013-02-02 19:21:00,
2013-02-02 13:26:00,71.4,59.0,30.21,SE,132,6.0,11.0,65,0.00,,---,0.00,VWS V14.01,2013-02-02 19:26:00,
2013-02-02 13:30:00,71.2,58.4,30.21,SE,124,5.0,11.0,64,0.00,,---,0.00,VWS V14.01,2013-02-02 19:30:00,
2013-02-02 13:35:00,71.2,59.3,30.20,East,82,4.0,11.0,66,0.00,,---,0.00,VWS V14.01,2013-02-02 19:35:00,
2013-02-02 13:41:00,71.2,58.8,30.20,ESE,117,5.0,11.0,65,0.00,,---,0.00,VWS V14.01,2013-02-02 19:41:00,
2013-02-02 13:46:00,71.2,58.8,30.20,ESE,118,6.0,11.0,65,0.00,,---,0.00,VWS V14.01,2013-02-02 19:46:00,
2013-02-02 13:51:00,70.9,58.6,30.20,East,91,8.0,11.0,65,0.00,,---,0.00,VWS V14.01,2013-02-02 19:51:00,
2013-02-02 13:56:00,71.1,59.6,30.20,ESE,120,4.0,11.0,67,0.00,,---,0.00,VWS V14.01,2013-02-02 19:56:00,
2013-02-02 14:01:00,71.0,59.5,30.20,East,92,7.0,11.0,67,0.00,,---,0.00,VWS V14.01,2013-02-02 20:01:00,
2013-02-02 14:06:00,70.7,58.8,30.20,East,85,3.0,8.0,66,0.00,,---,0.00,VWS V14.01,2013-02-02 20:06:00,
2013-02-02 14:11:00,71.0,59.1,30.20,East,96,7.0,9.0,66,0.00,,---,0.00,VWS V14.01,2013-02-02 20:11:00,
2013-02-02 14:16:00,70.9,58.6,30.20,SE,134,6.0,10.0,65,0.00,,---,0.00,VWS V14.01,2013-02-02 20:16:00,
2013-02-02 14:21:00,70.7,58.8,30.20,ENE,75,4.0,10.0,66,0.00,,---,0.00,VWS V14.01,2013-02-02 20:21:00,
2013-02-02 14:26:00,70.4,58.5,30.20,SE,124,5.0,11.0,66,0.00,,---,0.00,VWS V14.01,2013-02-02 20:26:00,
2013-02-02 14:31:00,70.3,58.8,30.20,ENE,77,6.0,12.0,67,0.00,,---,0.00,VWS V14.01,2013-02-02 20:31:00,
2013-02-02 14:36:00,70.6,58.7,30.19,ESE,118,3.0,12.0,66,0.00,,---,0.00,VWS V14.01,2013-02-02 20:36:00,
2013-02-02 14:41:00,71.1,59.2,30.19,SE,133,4.0,12.0,66,0.00,,---,0.00,VWS V14.01,2013-02-02 20:41:00,
2013-02-02 14:46:00,71.1,59.2,30.20,ESE,117,6.0,12.0,66,0.00,,---,0.00,VWS V14.01,2013-02-02 20:46:00,
2013-02-02 14:51:00,70.8,58.5,30.19,ESE,108,8.0,12.0,65,0.00,,---,0.00,VWS V14.01,2013-02-02 20:51:00,
2013-02-02 14:56:00,70.3,59.7,30.19,SE,129,7.0,12.0,69,0.00,,---,0.00,VWS V14.01,2013-02-02 20:56:00,
2013-02-02 15:01:00,70.7,59.6,30.19,ESE,118,5.0,12.0,68,0.00,,---,0.00,VWS V14.01,2013-02-02 21:01:00,
2013-02-02 15:06:00,70.9,59.4,30.19,East,94,8.0,8.0,67,0.00,,---,0.00,VWS V14.01,2013-02-02 21:06:00,
2013-02-02 15:11:00,70.5,59.0,30.19,SSE,147,7.0,10.0,67,0.00,,---,0.00,VWS V14.01,2013-02-02 21:11:00,
2013-02-02 15:16:00,70.7,59.6,30.19,SE,137,3.0,10.0,68,0.00,,---,0.00,VWS V14.01,2013-02-02 21:16:00,
2013-02-02 15:21:00,71.1,60.0,30.19,SSE,149,4.0,10.0,68,0.00,,---,0.00,VWS V14.01,2013-02-02 21:21:00,
2013-02-02 15:26:00,71.1,59.6,30.19,SE,133,6.0,10.0,67,0.00,,---,0.00,VWS V14.01,2013-02-02 21:26:00,
2013-02-02 15:31:00,71.1,59.6,30.19,SE,135,6.0,10.0,67,0.00,,---,0.00,VWS V14.01,2013-02-02 21:31:00,
2013-02-02 15:36:00,71.1,58.8,30.19,SE,124,6.0,10.0,65,0.00,,---,0.00,VWS V14.01,2013-02-02 21:36:00,
2013-02-02 15:41:00,71.1,59.2,30.19,SSE,167,3.0,10.0,66,0.00,,---,0.00,VWS V14.01,2013-02-02 21:41:00,
2013-02-02 15:46:00,71.2,59.7,30.19,SE,127,4.0,10.0,67,0.00,,---,0.00,VWS V14.01,2013-02-02 21:46:00,
2013-02-02 15:51:00,70.9,59.4,30.19,ESE,122,7.0,10.0,67,0.00,,---,0.00,VWS V14.01,2013-02-02 21:51:00,
2013-02-02 15:56:00,70.8,59.7,30.19,SE,128,7.0,10.0,68,0.00,,---,0.00,VWS V14.01,2013-02-02 21:56:00,
2013-02-02 16:01:00,70.5,59.0,30.19,ESE,113,8.0,10.0,67,0.00,,---,0.00,VWS V14.01,2013-02-02 22:01:00,
2013-02-02 16:06:00,70.2,59.2,30.18,ESE,109,5.0,9.0,68,0.00,,---,0.00,VWS V14.01,2013-02-02 22:06:00,
2013-02-02 16:11:00,70.2,59.6,30.18,ESE,109,3.0,9.0,69,0.00,,---,0.00,VWS V14.01,2013-02-02 22:11:00,
2013-02-02 16:16:00,70.1,59.1,30.18,SE,127,7.0,9.0,68,0.00,,---,0.00,VWS V14.01,2013-02-02 22:16:00,
2013-02-02 16:21:00,70.1,59.5,30.18,ESE,118,6.0,9.0,69,0.00,,---,0.00,VWS V14.01,2013-02-02 22:21:00,
2013-02-02 16:26:00,70.1,59.1,30.18,SE,127,1.0,9.0,68,0.00,,---,0.00,VWS V14.01,2013-02-02 22:26:00,
2013-02-02 16:31:00,70.1,59.1,30.18,ESE,104,7.0,9.0,68,0.00,,---,0.00,VWS V14.01,2013-02-02 22:31:00,
2013-02-02 16:36:00,69.9,59.7,30.18,SSE,149,2.0,9.0,70,0.00,,---,0.00,VWS V14.01,2013-02-02 22:36:00,
2013-02-02 16:41:00,70.1,59.9,30.18,SSE,147,2.0,9.0,70,0.00,,---,0.00,VWS V14.01,2013-02-02 22:41:00,
2013-02-02 16:46:00,70.0,60.2,30.18,ESE,114,4.0,9.0,71,0.00,,---,0.00,VWS V14.01,2013-02-02 22:46:00,
2013-02-02 16:50:00,69.8,60.0,30.18,SE,139,3.0,9.0,71,0.00,,---,0.00,VWS V14.01,2013-02-02 22:50:00,
2013-02-02 16:55:00,69.6,59.4,30.18,SE,139,4.0,9.0,70,0.00,,---,0.00,VWS V14.01,2013-02-02 22:55:00,
2013-02-02 17:00:00,69.4,59.6,30.18,SE,146,4.0,9.0,71,0.00,,---,0.00,VWS V14.01,2013-02-02 23:00:00,
2013-02-02 17:05:00,69.2,59.4,30.18,SE,133,5.0,8.0,71,0.00,,---,0.00,VWS V14.01,2013-02-02 23:05:00,
2013-02-02 17:10:00,69.1,59.7,30.18,SSE,148,2.0,8.0,72,0.00,,---,0.00,VWS V14.01,2013-02-02 23:10:00,
2013-02-02 17:15:00,68.9,59.9,30.18,ESE,115,2.0,8.0,73,0.00,,---,0.00,VWS V14.01,2013-02-02 23:15:00,
2013-02-02 17:20:00,68.6,59.6,30.18,SSE,157,5.0,8.0,73,0.00,,---,0.00,VWS V14.01,2013-02-02 23:20:00,
2013-02-02 17:25:00,68.4,59.8,30.18,SSE,163,3.0,8.0,74,0.00,,---,0.00,VWS V14.01,2013-02-02 23:25:00,
2013-02-02 17:30:00,68.3,59.7,30.18,SE,138,1.0,8.0,74,0.00,,---,0.00,VWS V14.01,2013-02-02 23:30:00,
2013-02-02 17:35:00,67.9,59.3,30.18,SE,141,5.0,8.0,74,0.00,,---,0.00,VWS V14.01,2013-02-02 23:35:00,
2013-02-02 17:40:00,67.6,59.4,30.18,SE,129,2.0,8.0,75,0.00,,---,0.00,VWS V14.01,2013-02-02 23:40:00,
2013-02-02 17:45:00,67.4,59.6,30.18,SE,140,3.0,8.0,76,0.00,,---,0.00,VWS V14.01,2013-02-02 23:45:00,
2013-02-02 17:50:00,67.1,59.7,30.18,ESE,103,3.0,8.0,77,0.00,,---,0.00,VWS V14.01,2013-02-02 23:50:00,
2013-02-02 17:55:00,66.7,59.6,30.18,ESE,121,1.0,8.0,78,0.00,,---,0.00,VWS V14.01,2013-02-02 23:55:00,
2013-02-02 18:00:00,66.3,60.0,30.18,ESE,105,3.0,8.0,80,0.00,,---,0.00,VWS V14.01,2013-02-03 00:00:00,
2013-02-02 18:05:00,66.0,59.7,30.18,SE,139,2.0,3.0,80,0.00,,---,0.00,VWS V14.01,2013-02-03 00:05:00,
2013-02-02 18:10:00,65.6,59.6,30.19,SE,143,0.0,4.0,81,0.00,,---,0.00,VWS V14.01,2013-02-03 00:10:00,
2013-02-02 18:15:00,65.3,60.0,30.19,ESE,117,1.0,4.0,83,0.00,,---,0.00,VWS V14.01,2013-02-03 00:15:00,
2013-02-02 18:20:00,65.0,60.0,30.19,ESE,121,1.0,4.0,84,0.00,,---,0.00,VWS V14.01,2013-02-03 00:20:00,
2013-02-02 18:25:00,64.9,60.0,30.19,ESE,112,1.0,4.0,84,0.00,,---,0.00,VWS V14.01,2013-02-03 00:25:00,
2013-02-02 18:30:00,64.8,60.2,30.19,East,93,2.0,4.0,85,0.00,,---,0.00,VWS V14.01,2013-02-03 00:30:00,
2013-02-02 18:35:00,64.6,60.0,30.20,ESE,122,1.0,4.0,85,0.00,,---,0.00,VWS V14.01,2013-02-03 00:35:00,
2013-02-02 18:40:00,64.4,60.1,30.20,ESE,117,1.0,4.0,86,0.00,,---,0.00,VWS V14.01,2013-02-03 00:40:00,
2013-02-02 18:45:00,64.2,59.9,30.20,ESE,108,1.0,4.0,86,0.00,,---,0.00,VWS V14.01,2013-02-03 00:45:00,
2013-02-02 18:50:00,64.1,60.2,30.20,SE,130,2.0,4.0,87,0.00,,---,0.00,VWS V14.01,2013-02-03 00:50:00,
2013-02-02 18:55:00,63.9,60.0,30.20,SE,136,2.0,4.0,87,0.00,,---,0.00,VWS V14.01,2013-02-03 00:55:00,
2013-02-02 19:00:00,63.9,60.3,30.20,ESE,121,1.0,4.0,88,0.00,,---,0.00,VWS V14.01,2013-02-03 01:00:00,
2013-02-02 19:05:00,63.9,60.3,30.20,ESE,111,2.0,3.0,88,0.00,,---,0.00,VWS V14.01,2013-02-03 01:05:00,
2013-02-02 19:10:00,63.8,60.2,30.20,ESE,117,1.0,3.0,88,0.00,,---,0.00,VWS V14.01,2013-02-03 01:10:00,
2013-02-02 19:15:00,63.8,60.2,30.20,SE,136,1.0,3.0,88,0.00,,---,0.00,VWS V14.01,2013-02-03 01:15:00,
2013-02-02 19:20:00,63.7,60.1,30.21,SE,134,2.0,3.0,88,0.00,,---,0.00,VWS V14.01,2013-02-03 01:20:00,
2013-02-02 19:25:00,63.6,60.0,30.21,SE,128,1.0,3.0,88,0.00,,---,0.00,VWS V14.01,2013-02-03 01:25:00,
2013-02-02 19:30:00,63.5,60.2,30.21,SE,138,1.0,3.0,89,0.00,,---,0.00,VWS V14.01,2013-02-03 01:30:00,
2013-02-02 19:35:00,63.4,60.1,30.21,SE,133,1.0,3.0,89,0.00,,---,0.00,VWS V14.01,2013-02-03 01:35:00,
2013-02-02 19:40:00,63.4,60.1,30.21,SE,139,1.0,3.0,89,0.00,,---,0.00,VWS V14.01,2013-02-03 01:40:00,
2013-02-02 19:45:00,63.4,60.4,30.22,SE,145,1.0,3.0,90,0.00,,---,0.00,VWS V14.01,2013-02-03 01:45:00,
2013-02-02 19:50:00,63.3,60.3,30.22,ESE,118,1.0,3.0,90,0.00,,---,0.00,VWS V14.01,2013-02-03 01:50:00,
2013-02-02 19:55:00,63.4,60.4,30.22,ESE,105,2.0,3.0,90,0.00,,---,0.00,VWS V14.01,2013-02-03 01:55:00,
2013-02-02 20:00:00,63.3,60.3,30.22,ESE,115,2.0,3.0,90,0.00,,---,0.00,VWS V14.01,2013-02-03 02:00:00,
2013-02-02 20:05:00,63.3,60.3,30.22,SE,127,2.0,3.0,90,0.00,,---,0.00,VWS V14.01,2013-02-03 02:05:00,
2013-02-02 20:10:00,63.3,60.3,30.22,ESE,116,2.0,3.0,90,0.00,,---,0.00,VWS V14.01,2013-02-03 02:10:00,
2013-02-02 20:15:00,63.3,60.6,30.22,SE,133,0.0,3.0,91,0.00,,---,0.00,VWS V14.01,2013-02-03 02:15:00,
2013-02-02 20:21:00,63.2,60.5,30.23,SE,138,1.0,3.0,91,0.00,,---,0.00,VWS V14.01,2013-02-03 02:21:00,
2013-02-02 20:26:00,63.2,60.5,30.23,ESE,123,1.0,3.0,91,0.00,,---,0.00,VWS V14.01,2013-02-03 02:26:00,
2013-02-02 20:31:00,63.1,60.4,30.23,SE,133,1.0,3.0,91,0.00,,---,0.00,VWS V14.01,2013-02-03 02:31:00,
2013-02-02 20:36:00,63.0,60.3,30.23,SE,136,1.0,3.0,91,0.00,,---,0.00,VWS V14.01,2013-02-03 02:36:00,
2013-02-02 20:41:00,63.0,60.3,30.23,ESE,119,1.0,3.0,91,0.00,,---,0.00,VWS V14.01,2013-02-03 02:41:00,
2013-02-02 20:46:00,63.0,60.3,30.24,ESE,115,1.0,3.0,91,0.00,,---,0.00,VWS V14.01,2013-02-03 02:46:00,
2013-02-02 20:51:00,63.0,60.3,30.24,SE,136,1.0,3.0,91,0.00,,---,0.00,VWS V14.01,2013-02-03 02:51:00,
2013-02-02 20:56:00,62.9,60.2,30.24,ESE,112,3.0,4.0,91,0.00,,---,0.00,VWS V14.01,2013-02-03 02:56:00,
2013-02-02 21:01:00,62.8,60.5,30.24,SE,128,2.0,4.0,92,0.00,,---,0.00,VWS V14.01,2013-02-03 03:01:00,
2013-02-02 21:06:00,62.8,60.5,30.24,SE,136,1.0,2.0,92,0.00,,---,0.00,VWS V14.01,2013-02-03 03:06:00,
2013-02-02 21:11:00,62.8,60.5,30.24,SE,129,1.0,3.0,92,0.00,,---,0.00,VWS V14.01,2013-02-03 03:11:00,
2013-02-02 21:16:00,62.8,60.5,30.24,SE,132,1.0,3.0,92,0.00,,---,0.00,VWS V14.01,2013-02-03 03:16:00,
2013-02-02 21:21:00,62.7,60.3,30.24,SE,125,1.0,3.0,92,0.00,,---,0.00,VWS V14.01,2013-02-03 03:21:00,
2013-02-02 21:26:00,62.6,60.2,30.24,SE,143,0.0,3.0,92,0.00,,---,0.00,VWS V14.01,2013-02-03 03:26:00,
2013-02-02 21:31:00,62.5,60.2,30.24,SE,134,0.0,3.0,92,0.00,,---,0.00,VWS V14.01,2013-02-03 03:31:00,
2013-02-02 21:36:00,62.4,60.3,30.24,ESE,116,0.0,3.0,93,0.00,,---,0.00,VWS V14.01,2013-02-03 03:36:00,
2013-02-02 21:41:00,62.4,60.0,30.25,SSE,153,1.0,3.0,92,0.00,,---,0.00,VWS V14.01,2013-02-03 03:41:00,
2013-02-02 21:46:00,62.4,60.0,30.25,SSE,153,1.0,3.0,92,0.00,,---,0.00,VWS V14.01,2013-02-03 03:46:00,
2013-02-02 21:51:00,62.4,60.3,30.25,SSE,157,1.0,3.0,93,0.00,,---,0.00,VWS V14.01,2013-02-03 03:51:00,
2013-02-02 21:56:00,62.3,60.0,30.25,ESE,117,1.0,3.0,92,0.00,,---,0.00,VWS V14.01,2013-02-03 03:56:00,
2013-02-02 22:01:00,62.3,60.0,30.25,SE,128,1.0,3.0,92,0.00,,---,0.00,VWS V14.01,2013-02-03 04:01:00,
2013-02-02 22:06:00,62.3,60.0,30.25,SE,130,1.0,1.0,92,0.00,,---,0.00,VWS V14.01,2013-02-03 04:06:00,
2013-02-02 22:11:00,62.3,60.0,30.25,SE,131,1.0,2.0,92,0.00,,---,0.00,VWS V14.01,2013-02-03 04:11:00,
2013-02-02 22:16:00,62.3,60.0,30.25,SE,146,1.0,2.0,92,0.00,,---,0.00,VWS V14.01,2013-02-03 04:16:00,
2013-02-02 22:21:00,62.2,59.8,30.25,SE,145,1.0,3.0,92,0.00,,---,0.00,VWS V14.01,2013-02-03 04:21:00,
2013-02-02 22:26:00,62.1,59.8,30.24,SE,142,2.0,3.0,92,0.00,,---,0.00,VWS V14.01,2013-02-03 04:26:00,
2013-02-02 22:31:00,62.1,60.1,30.24,SE,145,1.0,3.0,93,0.00,,---,0.00,VWS V14.01,2013-02-03 04:31:00,
2013-02-02 22:36:00,62.1,60.1,30.24,SE,134,1.0,3.0,93,0.00,,---,0.00,VWS V14.01,2013-02-03 04:36:00,
2013-02-02 22:41:00,62.2,60.2,30.24,SE,139,1.0,3.0,93,0.00,,---,0.00,VWS V14.01,2013-02-03 04:41:00,
2013-02-02 22:46:00,62.2,60.2,30.24,ESE,123,1.0,3.0,93,0.00,,---,0.00,VWS V14.01,2013-02-03 04:46:00,
2013-02-02 22:51:00,62.2,60.2,30.24,SE,133,1.0,3.0,93,0.00,,---,0.00,VWS V14.01,2013-02-03 04:51:00,
2013-02-02 22:56:00,62.1,60.1,30.24,SSE,148,0.0,3.0,93,0.00,,---,0.00,VWS V14.01,2013-02-03 04:56:00,
2013-02-02 23:00:00,62.1,60.1,30.24,SE,140,1.0,3.0,93,0.00,,---,0.00,VWS V14.01,2013-02-03 05:00:00,
2013-02-02 23:01:00,62.1,60.1,30.24,SE,145,1.0,3.0,93,0.00,,---,0.00,VWS V14.01,2013-02-03 05:01:00,
2013-02-02 23:06:00,62.0,60.0,30.24,SSE,149,0.0,1.0,93,0.00,,---,0.00,VWS V14.01,2013-02-03 05:06:00,
2013-02-02 23:11:00,61.8,59.8,30.24,SSE,162,0.0,2.0,93,0.00,,---,0.00,VWS V14.01,2013-02-03 05:11:00,
2013-02-02 23:16:00,61.7,59.7,30.24,South,170,0.0,2.0,93,0.00,,---,0.00,VWS V14.01,2013-02-03 05:16:00,
2013-02-02 23:21:00,61.5,59.5,30.25,South,170,0.0,2.0,93,0.00,,---,0.00,VWS V14.01,2013-02-03 05:21:00,
2013-02-02 23:26:00,61.4,59.7,30.25,South,170,0.0,2.0,94,0.00,,---,0.00,VWS V14.01,2013-02-03 05:26:00,
2013-02-02 23:31:00,61.4,59.7,30.24,South,170,0.0,2.0,94,0.00,,---,0.00,VWS V14.01,2013-02-03 05:31:00,
2013-02-02 23:36:00,61.4,59.7,30.25,SSE,156,0.0,2.0,94,0.00,,---,0.00,VWS V14.01,2013-02-03 05:36:00,
2013-02-02 23:41:00,61.4,59.7,30.25,SE,142,0.0,2.0,94,0.00,,---,0.00,VWS V14.01,2013-02-03 05:41:00,
2013-02-02 23:46:00,61.4,59.7,30.25,SE,142,0.0,2.0,94,0.00,,---,0.00,VWS V14.01,2013-02-03 05:46:00,
2013-02-02 23:51:00,61.5,59.8,30.25,SE,143,0.0,2.0,94,0.00,,---,0.00,VWS V14.01,2013-02-03 05:51:00,
2013-02-02 23:56:00,61.5,59.8,30.25,SSE,150,1.0,2.0,94,0.00,,---,0.00,VWS V14.01,2013-02-03 05:56:00,